createdAt,value
2022-09-07T00:00:59.137Z,99.90
2022-09-07T00:03:27.403Z,99.90
2022-09-07T00:05:55.600Z,99.90
2022-09-07T00:08:28.006Z,99.90
2022-09-07T00:10:59.546Z,99.90
2022-09-07T00:13:30.672Z,99.90
2022-09-07T00:15:59.142Z,99.90
2022-09-07T00:18:27.290Z,99.90
2022-09-07T00:21:02.554Z,99.90
2022-09-07T00:23:31.403Z,99.90
2022-09-07T00:26:06.227Z,99.90
2022-09-07T00:28:34.581Z,99.90
2022-09-07T00:31:02.984Z,99.90
2022-09-07T00:33:31.289Z,99.90
2022-09-07T00:35:59.963Z,99.90
2022-09-07T00:38:28.169Z,99.90
2022-09-07T00:40:56.182Z,99.90
2022-09-07T00:43:33.779Z,99.90
2022-09-07T00:46:02.568Z,99.90
2022-09-07T00:48:35.182Z,99.90
2022-09-07T00:51:06.178Z,99.90
2022-09-07T00:53:37.918Z,99.90
2022-09-07T00:56:07.467Z,99.90
2022-09-07T00:58:38.160Z,99.90
2022-09-07T01:01:06.246Z,99.90
2022-09-07T01:03:39.748Z,99.90
2022-09-07T01:06:13.500Z,99.90
2022-09-07T01:08:43.156Z,99.90
2022-09-07T01:11:11.700Z,99.90
2022-09-07T01:13:43.393Z,99.90
2022-09-07T01:16:27.304Z,99.90
2022-09-07T01:19:10.162Z,99.90
2022-09-07T01:21:55.672Z,99.90
2022-09-07T01:24:55.433Z,99.90
2022-09-07T01:27:56.393Z,99.90
2022-09-07T04:17:50.373Z,99.90
2022-09-07T04:20:18.593Z,99.90
2022-09-07T04:22:53.687Z,99.90
2022-09-07T04:25:22.318Z,99.90
2022-09-07T04:27:50.332Z,99.90
2022-09-07T04:30:18.504Z,99.90
2022-09-07T04:32:47.781Z,99.90
2022-09-07T04:35:17.579Z,99.90
2022-09-07T08:53:46.611Z,99.90
2022-09-07T08:56:20.417Z,99.90
2022-09-07T08:58:50.580Z,99.90
2022-09-07T09:04:16.737Z,99.90
2022-09-07T09:06:11.316Z,99.90
2022-09-07T09:06:58.416Z,99.90
2022-09-07T09:09:35.316Z,99.90
2022-09-07T09:12:18.236Z,99.90
2022-09-07T09:14:59.863Z,99.90
2022-09-07T09:17:31.549Z,99.90
2022-09-07T09:20:13.385Z,99.90
2022-09-07T09:22:42.924Z,99.90
2022-09-07T09:25:19.897Z,95.50
2022-09-07T09:27:48.380Z,97.10
2022-09-07T09:30:18.746Z,97.60
2022-09-07T09:32:48.473Z,96.40
2022-09-07T09:35:21.746Z,90.70
2022-09-07T09:37:51.005Z,89.00
2022-09-07T09:40:25.251Z,84.40
2022-09-07T09:43:01.914Z,84.10
2022-09-07T09:46:12.119Z,75.70
2022-09-07T09:48:26.888Z,74.40
2022-09-07T09:53:54.608Z,62.00
2022-09-07T09:56:23.166Z,63.40
2022-09-07T09:59:56.685Z,61.90
2022-09-07T10:04:34.164Z,72.90
2022-09-07T10:07:14.486Z,73.10
2022-09-07T10:09:49.753Z,65.30
2022-09-07T10:12:28.188Z,63.00
2022-09-07T10:14:57.499Z,68.20
2022-09-07T10:17:30.765Z,67.30
2022-09-07T10:20:02.106Z,66.00
2022-09-07T10:22:35.716Z,66.40
2022-09-07T10:25:29.259Z,67.40
2022-09-07T10:28:03.495Z,70.30
2022-09-07T10:30:38.626Z,69.80
2022-09-07T10:33:13.479Z,65.60
2022-09-07T10:35:50.659Z,69.30
2022-09-07T10:38:20.771Z,69.50
2022-09-07T10:41:00.029Z,65.20
2022-09-07T10:43:42.499Z,62.50
2022-09-07T10:49:27.435Z,60.40
2022-09-07T10:52:05.490Z,59.20
2022-09-07T10:54:45.083Z,55.50
2022-09-07T10:57:30.364Z,54.80
2022-09-07T11:00:08.160Z,53.10
2022-09-07T11:05:56.317Z,51.00
2022-09-07T11:09:14.830Z,53.40
2022-09-07T11:14:20.476Z,53.80
2022-09-07T11:16:54.120Z,53.60
2022-09-07T11:19:37.055Z,52.10
2022-09-07T11:22:20.361Z,50.20
2022-09-07T11:27:46.566Z,46.20
2022-09-07T11:30:21.780Z,42.10
2022-09-07T11:33:06.014Z,38.20
2022-09-07T11:35:40.821Z,39.30
2022-09-07T11:38:20.462Z,40.80
2022-09-07T11:41:03.073Z,43.10
2022-09-07T11:43:36.170Z,43.30
2022-09-07T11:46:08.725Z,42.50
2022-09-07T11:48:42.819Z,37.40
2022-09-07T11:51:15.085Z,36.50
2022-09-07T11:53:47.823Z,37.10
2022-09-07T11:56:21.614Z,35.80
2022-09-07T11:59:09.167Z,39.40
2022-09-07T12:01:48.369Z,38.70
2022-09-07T12:04:43.902Z,39.10
2022-09-07T12:07:31.979Z,35.30
2022-09-07T12:10:23.693Z,34.90
2022-09-07T12:13:12.988Z,27.50
2022-09-07T12:15:49.115Z,25.90
2022-09-07T12:18:32.098Z,26.80
2022-09-07T12:21:00.281Z,24.80
2022-09-07T12:23:30.690Z,26.00
2022-09-07T12:26:36.021Z,22.70
2022-09-07T12:29:23.971Z,16.60
2022-09-07T12:31:58.883Z,14.00
2022-09-07T12:35:02.332Z,11.50
2022-09-07T12:37:38.029Z,12.80
2022-09-07T12:40:57.838Z,5.60
2022-09-07T12:43:51.029Z,6.50
2022-09-07T12:46:21.533Z,6.50
2022-09-07T12:48:58.895Z,6.40
2022-09-07T12:54:31.409Z,5.20
2022-09-07T13:00:01.201Z,4.00
2022-09-07T13:03:49.537Z,2.60
2022-09-07T13:06:09.745Z,1.00
2022-09-07T13:09:10.643Z,1.00
2022-09-07T13:11:40.483Z,1.00
2022-09-07T13:14:20.347Z,1.00
2022-09-07T13:17:19.904Z,1.00
2022-09-07T13:20:21.131Z,1.00
2022-09-07T13:22:56.880Z,1.00
2022-09-07T13:25:47.341Z,1.00
2022-09-07T13:28:23.571Z,1.00
2022-09-07T13:31:06.133Z,1.00
2022-09-07T13:33:48.139Z,1.00
2022-09-07T13:36:27.154Z,1.00
2022-09-07T13:38:56.354Z,1.00
2022-09-07T13:41:29.303Z,1.00
2022-09-07T13:44:01.610Z,1.00
2022-09-07T13:47:03.646Z,1.00
2022-09-07T13:49:55.689Z,1.00
2022-09-07T13:52:31.183Z,1.00
2022-09-07T13:55:12.187Z,1.00
2022-09-07T13:57:50.746Z,1.00
2022-09-07T14:00:19.435Z,1.00
2022-09-07T14:02:55.960Z,1.00
2022-09-07T14:05:25.340Z,1.00
2022-09-07T14:07:53.711Z,1.00
2022-09-07T14:10:25.011Z,1.00
2022-09-07T14:13:05.819Z,1.00
2022-09-07T14:15:39.305Z,1.00
2022-09-07T14:18:13.470Z,1.00
2022-09-07T14:20:44.618Z,1.00
2022-09-07T14:23:16.993Z,1.00
2022-09-07T14:28:38.013Z,5.30
2022-09-07T14:31:07.006Z,1.00
2022-09-07T14:33:35.272Z,1.00
2022-09-07T14:36:23.233Z,1.00
2022-09-07T14:39:07.982Z,1.00
2022-09-07T14:41:38.665Z,1.00
2022-09-07T14:44:08.067Z,1.00
2022-09-07T14:46:37.241Z,1.00
2022-09-07T14:49:18.190Z,1.00
2022-09-07T14:51:48.402Z,1.00
2022-09-07T14:54:21.303Z,1.00
2022-09-07T14:57:02.532Z,1.00
2022-09-07T14:59:43.313Z,1.00
2022-09-07T15:02:28.474Z,1.00
2022-09-07T15:05:20.504Z,1.00
2022-09-07T15:07:49.719Z,1.00
2022-09-07T15:10:28.464Z,1.00
2022-09-07T15:12:57.934Z,1.00
2022-09-07T15:15:29.994Z,1.00
2022-09-07T15:32:01.099Z,1.00
2022-09-07T15:34:42.098Z,1.00
2022-09-07T15:38:01.876Z,1.00
2022-09-07T15:41:37.763Z,1.00
2022-09-07T15:44:43.134Z,1.00
2022-09-07T15:47:47.700Z,1.00
2022-09-07T15:50:34.431Z,1.00
2022-09-07T15:56:44.402Z,1.00
2022-09-07T15:59:56.181Z,1.00
2022-09-07T16:03:10.204Z,1.00
2022-09-07T16:06:18.519Z,1.00
2022-09-07T16:09:07.379Z,1.00
2022-09-07T16:13:00.134Z,1.00
2022-09-07T16:18:01.863Z,1.00
2022-09-07T16:21:17.725Z,1.00
2022-09-07T16:24:14.235Z,1.00
2022-09-07T16:27:06.127Z,1.00
2022-09-07T16:32:54.195Z,1.00
2022-09-07T16:36:01.684Z,1.00
2022-09-07T16:38:58.219Z,1.00
2022-09-07T16:46:02.728Z,1.00
2022-09-07T16:48:24.771Z,1.00
2022-09-07T16:51:33.363Z,1.00
2022-09-07T16:54:52.579Z,1.00
2022-09-07T17:00:51.906Z,1.00
2022-09-07T17:03:53.670Z,4.90
2022-09-07T17:06:44.168Z,13.20
2022-09-07T17:10:15.387Z,18.80
2022-09-07T17:13:37.830Z,24.90
2022-09-07T17:16:26.596Z,29.30
2022-09-07T17:19:35.889Z,31.20
2022-09-07T17:22:44.597Z,34.30
2022-09-07T17:25:44.691Z,38.10
2022-09-07T17:28:33.275Z,41.00
2022-09-07T17:35:07.545Z,47.60
2022-09-07T17:41:48.129Z,55.50
2022-09-07T17:44:40.504Z,61.90
2022-09-07T17:47:39.537Z,65.60
2022-09-07T17:53:46.171Z,78.30
2022-09-07T17:56:40.399Z,85.10
2022-09-07T18:03:10.516Z,92.40
2022-09-07T18:09:29.282Z,98.30
2022-09-07T18:12:33.226Z,99.90
2022-09-07T18:15:46.108Z,99.90
2022-09-07T18:19:00.001Z,99.90
2022-09-07T18:21:56.523Z,99.90
2022-09-07T18:24:51.046Z,99.90
2022-09-07T18:31:11.526Z,99.90
2022-09-07T18:34:27.393Z,99.90
2022-09-07T18:37:12.454Z,99.90
2022-09-07T18:40:13.351Z,99.90
2022-09-07T18:43:07.870Z,99.90
2022-09-07T18:46:11.815Z,99.90
2022-09-07T18:49:04.302Z,99.90
2022-09-07T18:56:19.176Z,99.90
2022-09-07T18:59:16.698Z,99.90
2022-09-07T19:06:11.103Z,99.90
2022-09-07T19:09:16.337Z,99.90
2022-09-07T19:15:05.212Z,99.90
2022-09-07T19:18:04.268Z,99.90
2022-09-07T19:24:55.414Z,99.90
2022-09-07T19:34:34.934Z,99.90
2022-09-07T19:40:47.916Z,99.90
2022-09-07T19:44:15.672Z,99.90
2022-09-07T19:53:49.119Z,99.90
2022-09-07T19:56:43.454Z,99.90
2022-09-07T19:59:37.741Z,99.90
2022-09-07T20:02:28.988Z,99.90
2022-09-07T20:05:06.238Z,99.90
2022-09-07T20:08:15.728Z,99.90
2022-09-07T20:10:57.466Z,99.90
2022-09-07T20:14:01.648Z,99.90
2022-09-07T20:17:05.855Z,99.90
2022-09-07T20:20:11.752Z,99.90
2022-09-07T20:26:42.672Z,99.90
2022-09-07T20:30:09.844Z,99.90
2022-09-07T20:34:59.381Z,99.90
2022-09-07T20:37:02.257Z,99.90
2022-09-07T20:40:19.480Z,99.90
2022-09-07T20:42:47.741Z,99.90
2022-09-07T20:45:18.708Z,99.90
2022-09-07T20:47:46.694Z,99.90
2022-09-07T20:50:14.827Z,99.90
2022-09-07T20:52:44.280Z,99.90
2022-09-07T20:55:12.498Z,99.90
2022-09-07T20:57:40.539Z,99.90
2022-09-07T21:00:09.491Z,99.90
2022-09-07T21:02:37.880Z,99.90
2022-09-07T21:05:07.872Z,99.90
2022-09-07T21:07:35.920Z,99.90
2022-09-07T21:10:07.000Z,99.90
2022-09-07T21:12:35.245Z,99.90
2022-09-07T21:15:03.446Z,99.90
2022-09-07T21:17:31.539Z,99.90
2022-09-07T21:19:59.558Z,99.90
2022-09-07T21:22:27.528Z,99.90
2022-09-07T21:24:55.502Z,99.90
2022-09-07T21:27:25.562Z,99.90
2022-09-07T21:29:53.524Z,99.90
2022-09-07T21:32:21.579Z,99.90
2022-09-07T21:34:49.518Z,99.90
2022-09-07T21:37:17.464Z,99.90
2022-09-07T21:39:45.447Z,99.90
2022-09-07T21:42:13.527Z,99.90
2022-09-07T21:44:42.909Z,99.90
2022-09-07T21:47:10.804Z,99.90
2022-09-07T21:49:38.830Z,99.90
2022-09-07T21:52:06.831Z,99.90
2022-09-07T21:54:34.788Z,99.90
2022-09-07T21:57:02.694Z,99.90
2022-09-07T21:59:30.620Z,99.90
2022-09-07T22:02:00.567Z,99.90
2022-09-07T22:04:28.905Z,99.90
2022-09-07T22:06:56.961Z,99.90
2022-09-07T22:09:24.855Z,99.90
2022-09-07T22:11:52.884Z,99.90
2022-09-07T22:14:20.841Z,99.90
2022-09-07T22:16:48.886Z,99.90
2022-09-07T22:19:18.211Z,99.90
2022-09-07T22:21:46.177Z,99.90
2022-09-07T22:24:15.208Z,99.90
2022-09-07T22:26:43.207Z,99.90
2022-09-07T22:29:13.388Z,99.90
2022-09-07T22:31:42.062Z,99.90
2022-09-07T22:34:10.530Z,99.90
2022-09-07T22:36:41.868Z,99.90
2022-09-07T22:39:12.576Z,99.90
2022-09-07T22:41:41.730Z,99.90
2022-09-07T22:44:13.571Z,99.90
2022-09-07T22:46:42.952Z,99.90
2022-09-07T22:49:12.575Z,99.90
2022-09-07T22:51:41.940Z,99.90
2022-09-07T22:54:09.847Z,99.90
2022-09-07T22:56:38.311Z,99.90
2022-09-07T22:59:09.267Z,99.90
2022-09-07T23:01:37.760Z,99.90
2022-09-07T23:04:06.617Z,99.90
2022-09-07T23:06:36.594Z,99.90
2022-09-07T23:09:08.741Z,99.90
2022-09-07T23:11:37.094Z,99.90
2022-09-07T23:14:08.537Z,99.90
2022-09-07T23:16:36.435Z,99.90
2022-09-07T23:19:04.977Z,99.90
2022-09-07T23:21:32.984Z,99.90
2022-09-07T23:24:01.647Z,99.90
2022-09-07T23:26:32.701Z,99.90
2022-09-07T23:29:02.690Z,99.90
2022-09-07T23:31:32.935Z,99.90
2022-09-07T23:34:01.545Z,99.90
2022-09-07T23:36:30.535Z,99.90
2022-09-07T23:39:00.034Z,99.90
2022-09-07T23:41:28.772Z,99.90
2022-09-07T23:43:58.142Z,99.90
2022-09-07T23:46:26.233Z,99.90
2022-09-07T23:48:54.257Z,99.90
2022-09-07T23:51:24.545Z,99.90
2022-09-07T23:53:52.994Z,99.90
2022-09-07T23:56:21.505Z,99.90
2022-09-07T23:58:49.500Z,99.90
